createdAt,value
2022-11-20T00:01:23.939Z,2.53
2022-11-20T00:03:54.021Z,2.52
2022-11-20T00:06:22.975Z,2.58
2022-11-20T00:08:50.845Z,2.50
2022-11-20T00:11:21.488Z,2.51
2022-11-20T00:13:51.436Z,2.55
2022-11-20T00:16:22.045Z,2.53
2022-11-20T00:18:50.016Z,2.51
2022-11-20T00:21:19.216Z,2.57
2022-11-20T00:23:47.201Z,2.54
2022-11-20T00:26:18.411Z,2.53
2022-11-20T00:28:51.838Z,2.49
2022-11-20T00:31:20.109Z,2.55
2022-11-20T00:33:48.035Z,2.54
2022-11-20T00:36:18.730Z,2.47
2022-11-20T00:38:47.436Z,2.53
2022-11-20T00:41:16.619Z,2.46
2022-11-20T00:43:44.717Z,2.43
2022-11-20T00:46:18.592Z,2.50
2022-11-20T00:48:47.308Z,2.44
2022-11-20T00:51:18.136Z,2.46
2022-11-20T00:53:45.781Z,2.46
2022-11-20T00:56:16.508Z,2.47
2022-11-20T00:58:46.083Z,2.49
2022-11-20T01:01:20.536Z,2.49
2022-11-20T01:03:50.438Z,2.52
2022-11-20T01:06:35.452Z,2.50
2022-11-20T01:09:08.745Z,2.53
2022-11-20T01:11:37.919Z,2.55
2022-11-20T01:14:08.323Z,2.52
2022-11-20T01:16:38.572Z,2.55
2022-11-20T01:19:10.592Z,2.54
2022-11-20T01:21:40.736Z,2.51
2022-11-20T01:24:12.329Z,2.54
2022-11-20T01:26:41.440Z,2.58
2022-11-20T01:29:20.626Z,2.56
2022-11-20T01:31:48.519Z,2.52
2022-11-20T01:34:18.864Z,2.43
2022-11-20T01:36:46.718Z,2.58
2022-11-20T01:39:18.735Z,2.44
2022-11-20T01:42:09.911Z,2.46
2022-11-20T01:44:53.126Z,2.47
2022-11-20T01:47:49.431Z,2.45
2022-11-20T01:50:27.412Z,2.39
2022-11-20T01:53:04.708Z,2.41
2022-11-20T01:55:35.555Z,2.37
2022-11-20T01:58:04.144Z,2.46
2022-11-20T02:00:31.877Z,2.32
2022-11-20T02:03:04.639Z,2.35
2022-11-20T02:05:45.610Z,2.33
2022-11-20T02:08:13.914Z,2.34
2022-11-20T02:10:41.400Z,2.27
2022-11-20T02:13:38.848Z,2.17
2022-11-20T02:16:11.179Z,2.21
2022-11-20T02:18:39.871Z,2.13
2022-11-20T02:21:14.821Z,2.17
2022-11-20T02:24:31.405Z,2.13
2022-11-20T02:27:09.774Z,2.00
2022-11-20T02:29:50.753Z,1.95
2022-11-20T02:32:33.364Z,1.91
2022-11-20T02:35:28.383Z,1.88
2022-11-20T02:38:00.212Z,1.98
2022-11-20T02:40:27.751Z,1.82
2022-11-20T02:42:56.469Z,1.90
2022-11-20T02:45:25.231Z,1.81
2022-11-20T02:47:53.532Z,1.86
2022-11-20T02:50:21.068Z,1.82
2022-11-20T02:52:48.758Z,1.92
2022-11-20T02:55:16.433Z,1.95
2022-11-20T02:57:43.999Z,1.92
2022-11-20T03:00:12.697Z,1.89
2022-11-20T03:02:40.164Z,1.90
2022-11-20T03:05:07.741Z,1.96
2022-11-20T03:07:36.329Z,1.82
2022-11-20T03:10:05.195Z,1.83
2022-11-20T03:12:32.672Z,1.83
2022-11-20T03:15:00.860Z,1.88
2022-11-20T03:17:28.450Z,1.83
2022-11-20T03:19:55.919Z,1.88
2022-11-20T03:22:23.636Z,1.82
2022-11-20T03:24:51.059Z,1.79
2022-11-20T03:27:18.487Z,1.81
2022-11-20T03:29:46.383Z,1.84
2022-11-20T03:32:13.805Z,1.94
2022-11-20T03:34:41.276Z,1.80
2022-11-20T03:37:09.062Z,1.93
2022-11-20T03:39:36.589Z,1.86
2022-11-20T03:42:24.021Z,1.86
2022-11-20T03:44:51.668Z,1.86
2022-11-20T03:47:19.125Z,1.87
2022-11-20T03:49:46.732Z,1.85
2022-11-20T03:52:14.684Z,1.85
2022-11-20T03:54:42.107Z,1.80
2022-11-20T03:57:09.585Z,1.79
2022-11-20T03:59:37.383Z,1.80
2022-11-20T04:02:04.855Z,1.77
2022-11-20T04:04:32.585Z,1.78
2022-11-20T04:07:00.269Z,1.83
2022-11-20T04:09:27.972Z,1.83
2022-11-20T04:11:56.210Z,1.80
2022-11-20T04:14:23.728Z,1.78
2022-11-20T04:16:51.376Z,1.78
2022-11-20T04:19:19.668Z,1.78
2022-11-20T04:21:47.364Z,1.84
2022-11-20T04:24:14.844Z,1.78
2022-11-20T04:26:42.811Z,1.78
2022-11-20T04:29:12.992Z,1.80
2022-11-20T04:31:40.507Z,1.80
2022-11-20T04:34:08.505Z,1.82
2022-11-20T04:36:36.149Z,1.79
2022-11-20T04:39:06.719Z,1.79
2022-11-20T04:41:36.831Z,1.77
2022-11-20T04:44:06.579Z,1.80
2022-11-20T04:46:37.161Z,1.83
2022-11-20T04:49:05.498Z,1.72
2022-11-20T04:51:33.762Z,1.74
2022-11-20T04:54:01.790Z,1.75
2022-11-20T04:56:29.321Z,1.69
2022-11-20T04:58:56.865Z,1.80
2022-11-20T05:01:25.791Z,1.75
2022-11-20T05:03:53.466Z,1.76
2022-11-20T05:06:23.192Z,1.78
2022-11-20T05:08:51.269Z,1.76
2022-11-20T05:11:21.630Z,1.72
2022-11-20T05:13:50.424Z,1.72
2022-11-20T05:16:23.564Z,1.69
2022-11-20T05:18:52.800Z,1.68
2022-11-20T05:21:21.238Z,1.68
2022-11-20T05:23:49.036Z,1.68
2022-11-20T05:26:19.363Z,1.67
2022-11-20T05:28:48.081Z,1.68
2022-11-20T05:31:23.385Z,1.69
2022-11-20T05:33:54.688Z,1.69
2022-11-20T05:36:22.176Z,1.69
2022-11-20T05:38:51.194Z,1.68
2022-11-20T05:41:21.292Z,1.68
2022-11-20T05:43:50.600Z,1.57
2022-11-20T05:46:27.691Z,1.69
2022-11-20T05:48:57.581Z,1.68
2022-11-20T05:51:25.985Z,1.61
2022-11-20T05:53:53.616Z,1.59
2022-11-20T05:56:22.993Z,1.61
2022-11-20T05:58:50.845Z,1.68
2022-11-20T06:01:24.275Z,1.69
2022-11-20T06:03:53.584Z,1.72
2022-11-20T06:06:21.781Z,1.77
2022-11-20T06:08:49.725Z,1.79
2022-11-20T06:11:18.214Z,1.82
2022-11-20T06:13:46.738Z,1.84
2022-11-20T06:16:17.080Z,1.80
2022-11-20T06:18:45.329Z,1.83
2022-11-20T06:21:18.300Z,1.83
2022-11-20T06:23:47.534Z,1.83
2022-11-20T06:26:18.388Z,1.80
2022-11-20T06:28:47.049Z,1.88
2022-11-20T06:31:16.141Z,1.81
2022-11-20T06:33:44.125Z,1.85
2022-11-20T06:36:13.997Z,1.85
2022-11-20T06:38:41.797Z,1.82
2022-11-20T06:41:14.963Z,1.86
2022-11-20T06:43:43.182Z,1.84
2022-11-20T06:46:12.705Z,1.86
2022-11-20T06:48:40.916Z,1.88
2022-11-20T06:51:09.539Z,1.83
2022-11-20T06:53:37.584Z,1.92
2022-11-20T06:56:06.131Z,1.92
2022-11-20T06:58:35.123Z,1.99
2022-11-20T07:01:08.358Z,1.97
2022-11-20T07:03:36.795Z,1.96
2022-11-20T07:06:05.387Z,2.00
2022-11-20T07:08:33.953Z,2.05
2022-11-20T07:11:04.848Z,2.22
2022-11-20T07:13:32.999Z,2.23
2022-11-20T07:16:05.551Z,2.18
2022-11-20T07:18:33.628Z,2.22
2022-11-20T07:21:02.941Z,2.41
2022-11-20T07:23:30.651Z,2.40
2022-11-20T07:25:58.586Z,2.26
2022-11-20T07:28:26.292Z,2.27
2022-11-20T07:30:54.437Z,2.32
2022-11-20T07:33:22.830Z,2.60
2022-11-20T07:35:50.320Z,2.45
2022-11-20T07:38:18.054Z,2.60
2022-11-20T07:40:46.160Z,2.44
2022-11-20T07:43:14.117Z,2.55
2022-11-20T07:45:43.363Z,2.44
2022-11-20T07:48:11.565Z,2.48
2022-11-20T07:50:39.093Z,2.32
2022-11-20T07:53:07.072Z,2.44
2022-11-20T07:55:37.401Z,2.62
2022-11-20T07:58:04.898Z,2.54
2022-11-20T08:00:32.765Z,2.57
2022-11-20T08:03:03.446Z,2.51
2022-11-20T08:05:31.039Z,2.76
2022-11-20T08:07:58.444Z,2.87
2022-11-20T08:10:26.302Z,2.60
2022-11-20T08:13:12.680Z,2.92
2022-11-20T08:15:41.208Z,2.65
2022-11-20T08:21:05.420Z,2.65
2022-11-20T08:23:33.190Z,2.96
2022-11-20T08:26:00.962Z,3.14
2022-11-20T08:28:28.589Z,3.11
2022-11-20T08:31:01.521Z,3.02
2022-11-20T08:33:29.964Z,2.98
2022-11-20T08:36:04.973Z,2.87
2022-11-20T08:38:33.284Z,3.00
2022-11-20T08:41:21.318Z,2.97
2022-11-20T08:43:49.054Z,2.71
2022-11-20T08:46:16.492Z,2.83
2022-11-20T08:48:45.473Z,3.14
2022-11-20T08:51:13.337Z,3.01
2022-11-20T08:53:40.931Z,3.02
2022-11-20T08:56:08.735Z,2.91
2022-11-20T08:59:01.945Z,3.02
2022-11-20T09:01:24.634Z,3.08
2022-11-20T09:03:52.614Z,3.13
2022-11-20T09:06:20.156Z,3.10
2022-11-20T09:08:48.060Z,3.13
2022-11-20T09:11:15.824Z,3.15
2022-11-20T09:13:43.609Z,3.45
2022-11-20T09:16:11.661Z,3.44
2022-11-20T09:18:39.871Z,3.64
2022-11-20T09:21:13.719Z,3.65
2022-11-20T09:23:41.612Z,3.82
2022-11-20T09:26:13.852Z,3.67
2022-11-20T09:28:42.381Z,3.65
2022-11-20T09:31:19.096Z,3.84
2022-11-20T09:33:46.901Z,3.85
2022-11-20T09:36:14.285Z,3.94
2022-11-20T09:38:41.644Z,3.92
2022-11-20T09:42:01.085Z,4.12
2022-11-20T09:44:41.130Z,3.98
2022-11-20T09:47:29.879Z,3.79
2022-11-20T09:50:15.981Z,3.63
2022-11-20T09:52:58.798Z,3.97
2022-11-20T09:55:27.115Z,3.95
2022-11-20T09:57:55.476Z,4.24
2022-11-20T10:00:24.401Z,4.26
2022-11-20T10:02:59.396Z,3.95
2022-11-20T10:05:44.390Z,3.95
2022-11-20T10:08:23.785Z,4.03
2022-11-20T10:10:57.763Z,4.53
2022-11-20T10:14:02.578Z,4.67
2022-11-20T10:16:38.006Z,4.86
2022-11-20T10:19:20.268Z,4.75
2022-11-20T10:21:50.994Z,4.67
2022-11-20T10:24:36.845Z,4.99
2022-11-20T10:27:22.171Z,4.74
2022-11-20T10:30:03.575Z,4.78
2022-11-20T10:32:38.421Z,5.10
2022-11-20T10:35:19.819Z,5.00
2022-11-20T10:37:51.832Z,5.29
2022-11-20T10:40:22.905Z,5.45
2022-11-20T10:42:57.328Z,5.51
2022-11-20T10:45:24.960Z,5.24
2022-11-20T10:47:56.021Z,5.32
2022-11-20T10:50:24.043Z,5.83
2022-11-20T10:53:04.059Z,5.77
2022-11-20T10:55:45.180Z,5.67
2022-11-20T10:58:31.687Z,5.70
2022-11-20T11:01:27.591Z,5.55
2022-11-20T11:03:56.808Z,5.64
2022-11-20T11:06:36.192Z,5.70
2022-11-20T11:09:12.964Z,5.46
2022-11-20T11:11:40.432Z,5.61
2022-11-20T11:14:16.411Z,5.79
2022-11-20T11:16:54.857Z,5.28
2022-11-20T11:19:23.137Z,5.57
2022-11-20T11:21:55.872Z,5.78
2022-11-20T11:24:46.502Z,5.90
2022-11-20T11:27:18.844Z,6.06
2022-11-20T11:29:48.024Z,6.02
2022-11-20T11:32:20.056Z,5.91
2022-11-20T11:35:08.181Z,5.61
2022-11-20T11:37:38.518Z,5.64
2022-11-20T11:40:26.397Z,5.84
2022-11-20T11:42:59.039Z,5.97
2022-11-20T11:45:27.268Z,5.92
2022-11-20T11:47:57.869Z,5.97
2022-11-20T11:50:30.115Z,5.92
2022-11-20T11:53:06.793Z,6.08
2022-11-20T11:56:01.232Z,6.12
2022-11-20T11:58:28.872Z,6.15
2022-11-20T12:01:28.847Z,6.04
2022-11-20T12:04:22.216Z,5.88
2022-11-20T12:06:57.641Z,6.34
2022-11-20T12:09:36.044Z,6.00
2022-11-20T12:12:11.916Z,5.90
2022-11-20T12:14:43.633Z,6.32
2022-11-20T12:17:14.116Z,6.39
2022-11-20T12:19:42.404Z,6.23
2022-11-20T12:22:46.865Z,6.28
2022-11-20T12:25:37.241Z,6.37
2022-11-20T12:28:20.492Z,6.28
2022-11-20T12:31:22.297Z,6.32
2022-11-20T12:34:08.736Z,6.25
2022-11-20T12:36:36.697Z,6.27
2022-11-20T12:39:31.490Z,6.29
2022-11-20T12:42:37.575Z,6.40
2022-11-20T12:45:29.073Z,6.47
2022-11-20T12:48:06.184Z,6.16
2022-11-20T12:51:15.149Z,6.37
2022-11-20T12:54:11.410Z,6.51
2022-11-20T12:56:52.724Z,6.22
2022-11-20T12:59:26.438Z,6.34
2022-11-20T13:02:16.155Z,6.20
2022-11-20T13:04:59.944Z,6.03
2022-11-20T13:07:29.269Z,6.40
2022-11-20T13:09:59.817Z,6.53
2022-11-20T13:12:30.225Z,6.35
2022-11-20T13:15:06.880Z,6.39
2022-11-20T13:17:52.076Z,6.43
2022-11-20T13:20:20.684Z,6.41
2022-11-20T13:22:56.048Z,6.45
2022-11-20T13:25:26.733Z,6.27
2022-11-20T13:27:55.772Z,6.20
2022-11-20T13:30:28.180Z,6.47
2022-11-20T13:33:01.007Z,6.50
2022-11-20T13:35:37.892Z,6.48
2022-11-20T13:38:07.664Z,6.20
2022-11-20T13:40:39.086Z,6.33
2022-11-20T13:43:22.640Z,6.48
2022-11-20T13:45:59.322Z,6.24
2022-11-20T13:48:48.025Z,6.35
2022-11-20T13:51:38.489Z,6.46
2022-11-20T13:54:39.240Z,6.51
2022-11-20T13:57:38.229Z,6.21
2022-11-20T14:00:21.245Z,6.53
2022-11-20T14:03:07.488Z,6.57
2022-11-20T14:05:40.048Z,6.58
2022-11-20T14:08:18.624Z,6.52
2022-11-20T14:10:46.310Z,6.58
2022-11-20T14:13:20.942Z,6.55
2022-11-20T14:15:48.685Z,6.53
2022-11-20T14:18:27.547Z,6.27
2022-11-20T14:20:55.386Z,6.49
2022-11-20T14:23:30.292Z,6.43
2022-11-20T14:25:58.300Z,6.37
2022-11-20T14:28:31.484Z,6.13
2022-11-20T14:30:59.282Z,6.29
2022-11-20T14:33:28.647Z,6.33
2022-11-20T14:35:58.952Z,6.36
2022-11-20T14:38:29.161Z,6.30
2022-11-20T14:41:08.065Z,6.23
2022-11-20T14:43:38.751Z,6.29
2022-11-20T14:46:09.232Z,6.29
2022-11-20T14:48:50.368Z,6.30
2022-11-20T14:51:42.414Z,6.24
2022-11-20T14:54:16.274Z,6.34
2022-11-20T14:56:58.399Z,6.29
2022-11-20T14:59:28.615Z,6.18
2022-11-20T15:02:09.904Z,6.15
2022-11-20T15:04:52.367Z,6.15
2022-11-20T15:07:33.460Z,6.05
2022-11-20T15:10:13.736Z,6.08
2022-11-20T15:12:49.761Z,6.06
2022-11-20T15:15:26.099Z,6.08
2022-11-20T15:17:54.969Z,6.04
2022-11-20T15:20:28.622Z,6.00
2022-11-20T15:22:56.283Z,6.07
2022-11-20T15:25:25.616Z,6.04
2022-11-20T15:27:57.939Z,5.95
2022-11-20T15:30:25.797Z,5.93
2022-11-20T15:32:54.184Z,5.85
2022-11-20T15:35:21.933Z,5.96
2022-11-20T15:37:49.607Z,5.93
2022-11-20T15:40:17.312Z,6.04
2022-11-20T15:43:06.835Z,6.09
2022-11-20T15:45:47.176Z,6.06
2022-11-20T15:48:17.310Z,6.00
2022-11-20T15:50:53.990Z,6.03
2022-11-20T15:53:21.688Z,6.00
2022-11-20T15:55:50.482Z,5.99
2022-11-20T15:58:18.273Z,6.10
2022-11-20T16:00:47.212Z,6.08
2022-11-20T16:03:17.364Z,6.01
2022-11-20T16:05:45.744Z,6.07
2022-11-20T16:08:13.948Z,6.08
2022-11-20T16:10:42.204Z,6.10
2022-11-20T16:13:36.809Z,6.04
2022-11-20T16:16:07.855Z,5.89
2022-11-20T16:18:35.398Z,5.88
2022-11-20T16:21:04.043Z,5.88
2022-11-20T16:23:31.939Z,5.90
2022-11-20T16:25:59.651Z,5.73
2022-11-20T16:28:27.322Z,5.74
2022-11-20T16:30:55.332Z,5.62
2022-11-20T16:33:22.934Z,5.65
2022-11-20T16:35:50.588Z,5.77
2022-11-20T16:38:18.574Z,5.86
2022-11-20T16:40:46.201Z,5.75
2022-11-20T16:43:14.889Z,5.79
2022-11-20T16:45:44.213Z,5.74
2022-11-20T16:48:16.976Z,5.80
2022-11-20T16:50:48.472Z,5.85
2022-11-20T16:53:18.190Z,5.67
2022-11-20T16:55:46.192Z,5.80
2022-11-20T16:58:15.257Z,5.64
2022-11-20T17:00:50.100Z,5.75
2022-11-20T17:03:19.339Z,5.80
2022-11-20T17:05:47.396Z,5.84
2022-11-20T17:08:15.111Z,5.89
2022-11-20T17:10:43.072Z,5.94
2022-11-20T17:13:11.141Z,5.94
2022-11-20T17:15:38.778Z,5.99
2022-11-20T17:18:06.761Z,5.91
2022-11-20T17:20:34.485Z,5.92
2022-11-20T17:23:02.132Z,5.82
2022-11-20T17:25:33.295Z,5.78
2022-11-20T17:28:01.208Z,5.83
2022-11-20T17:30:29.061Z,5.61
2022-11-20T17:32:57.028Z,5.59
2022-11-20T17:35:24.700Z,5.60
2022-11-20T17:37:52.272Z,5.61
2022-11-20T17:40:25.879Z,5.54
2022-11-20T17:42:54.887Z,5.59
2022-11-20T17:45:22.908Z,5.30
2022-11-20T17:47:50.469Z,5.44
2022-11-20T17:50:18.153Z,5.47
2022-11-20T17:52:45.939Z,5.47
2022-11-20T17:55:13.655Z,5.42
2022-11-20T17:57:53.311Z,5.43
2022-11-20T18:00:22.283Z,5.35
2022-11-20T18:02:50.343Z,5.37
2022-11-20T18:05:18.224Z,5.44
2022-11-20T18:07:46.338Z,5.49
2022-11-20T18:10:14.561Z,5.48
2022-11-20T18:12:42.044Z,5.45
2022-11-20T18:15:09.922Z,5.41
2022-11-20T18:17:37.696Z,5.46
2022-11-20T18:22:53.940Z,5.48
2022-11-20T18:25:21.669Z,5.43
2022-11-20T18:27:49.562Z,5.51
2022-11-20T18:30:17.549Z,5.46
2022-11-20T18:32:45.383Z,5.39
2022-11-20T18:35:12.854Z,5.39
2022-11-20T18:37:41.436Z,5.39
2022-11-20T18:40:10.020Z,5.38
2022-11-20T18:43:17.995Z,5.35
2022-11-20T18:45:46.171Z,5.31
2022-11-20T18:48:14.052Z,5.34
2022-11-20T18:50:42.227Z,5.27
2022-11-20T18:53:10.189Z,5.07
2022-11-20T18:55:37.971Z,5.21
2022-11-20T18:58:05.636Z,5.05
2022-11-20T19:00:33.669Z,5.16
2022-11-20T19:03:01.509Z,5.16
2022-11-20T19:05:30.389Z,5.13
2022-11-20T19:07:58.477Z,4.97
2022-11-20T19:10:27.124Z,5.03
2022-11-20T19:12:55.832Z,4.89
2022-11-20T19:15:23.580Z,4.94
2022-11-20T19:17:52.044Z,4.80
2022-11-20T19:20:20.665Z,4.83
2022-11-20T19:22:51.812Z,4.96
2022-11-20T19:25:20.027Z,5.07
2022-11-20T19:27:50.349Z,5.14
2022-11-20T19:30:18.152Z,5.12
2022-11-20T19:32:46.148Z,5.15
2022-11-20T19:35:14.201Z,5.16
2022-11-20T19:37:41.917Z,5.13
2022-11-20T19:40:12.166Z,5.10
2022-11-20T19:42:40.361Z,4.84
2022-11-20T19:45:08.997Z,5.05
2022-11-20T19:48:01.043Z,5.05
2022-11-20T19:50:24.753Z,5.08
2022-11-20T19:52:57.368Z,5.05
2022-11-20T19:55:27.079Z,5.07
2022-11-20T19:57:54.940Z,5.06
2022-11-20T20:00:29.704Z,5.08
2022-11-20T20:03:00.809Z,5.10
2022-11-20T20:05:28.301Z,5.06
2022-11-20T20:07:56.136Z,5.01
2022-11-20T20:10:24.092Z,4.95
2022-11-20T20:12:51.521Z,5.01
2022-11-20T20:15:19.168Z,5.08
2022-11-20T20:17:47.350Z,5.07
2022-11-20T20:20:14.918Z,4.99
2022-11-20T20:22:42.912Z,4.95
2022-11-20T20:25:11.212Z,5.04
2022-11-20T20:27:39.005Z,5.11
2022-11-20T20:30:08.363Z,5.11
2022-11-20T20:32:36.395Z,5.08
2022-11-20T20:35:05.425Z,4.90
2022-11-20T20:37:33.076Z,5.06
2022-11-20T20:40:01.371Z,5.10
2022-11-20T20:42:31.848Z,5.03
2022-11-20T20:45:08.332Z,5.05
2022-11-20T20:47:41.340Z,5.07
2022-11-20T20:50:12.225Z,5.05
2022-11-20T20:52:40.426Z,5.10
2022-11-20T20:55:08.997Z,5.12
2022-11-20T20:57:37.183Z,5.06
2022-11-20T21:00:06.668Z,5.12
2022-11-20T21:02:34.581Z,5.08
2022-11-20T21:05:02.547Z,5.16
2022-11-20T21:07:30.610Z,5.00
2022-11-20T21:09:58.504Z,4.86
2022-11-20T21:12:26.192Z,5.01
2022-11-20T21:14:54.067Z,4.99
2022-11-20T21:17:21.728Z,5.04
2022-11-20T21:19:49.220Z,5.08
2022-11-20T21:22:17.204Z,4.96
2022-11-20T21:24:44.676Z,5.01
2022-11-20T21:27:12.152Z,5.09
2022-11-20T21:29:40.016Z,5.04
2022-11-20T21:32:07.479Z,4.94
2022-11-20T21:34:35.296Z,4.81
2022-11-20T21:37:04.445Z,4.79
2022-11-20T21:39:31.917Z,4.87
2022-11-20T21:41:59.384Z,4.85
2022-11-20T21:44:31.584Z,4.84
2022-11-20T21:46:59.439Z,4.81
2022-11-20T21:49:27.215Z,4.79
2022-11-20T21:51:54.986Z,4.77
2022-11-20T21:54:22.839Z,4.81
2022-11-20T21:56:50.928Z,4.89
2022-11-20T21:59:18.556Z,4.90
2022-11-20T22:01:45.977Z,4.93
2022-11-20T22:04:15.503Z,4.81
2022-11-20T22:06:42.993Z,4.78
2022-11-20T22:09:11.000Z,4.76
2022-11-20T22:11:38.791Z,4.76
2022-11-20T22:14:21.819Z,4.74
2022-11-20T22:16:51.422Z,4.58
2022-11-20T22:19:21.015Z,4.73
2022-11-20T22:21:50.609Z,4.76
2022-11-20T22:24:20.293Z,4.68
2022-11-20T22:26:48.348Z,4.79
2022-11-20T22:29:18.361Z,4.81
2022-11-20T22:31:46.219Z,4.76
2022-11-20T22:34:14.705Z,4.81
2022-11-20T22:36:42.691Z,4.77
2022-11-20T22:39:10.704Z,4.74
2022-11-20T22:41:38.180Z,4.81
2022-11-20T22:44:07.873Z,4.74
2022-11-20T22:46:37.171Z,4.53
2022-11-20T22:49:08.839Z,4.59
2022-11-20T22:51:39.318Z,4.68
2022-11-20T22:54:07.624Z,4.71
2022-11-20T22:56:35.169Z,4.64
2022-11-20T22:59:03.560Z,4.61
2022-11-20T23:01:33.307Z,4.54
2022-11-20T23:04:03.293Z,4.57
2022-11-20T23:06:34.385Z,4.50
2022-11-20T23:09:06.117Z,4.57
2022-11-20T23:11:35.301Z,4.31
2022-11-20T23:14:11.521Z,4.29
2022-11-20T23:16:39.213Z,4.15
2022-11-20T23:19:10.372Z,4.12
2022-11-20T23:21:40.627Z,4.16
2022-11-20T23:24:09.458Z,4.10
2022-11-20T23:26:39.884Z,4.10
2022-11-20T23:29:08.081Z,4.25
2022-11-20T23:31:36.733Z,4.25
2022-11-20T23:34:05.013Z,4.35
2022-11-20T23:36:32.593Z,4.15
2022-11-20T23:39:00.479Z,4.03
2022-11-20T23:41:27.925Z,4.00
2022-11-20T23:43:55.373Z,3.96
2022-11-20T23:46:23.192Z,3.99
2022-11-20T23:48:50.628Z,4.00
2022-11-20T23:51:18.406Z,3.89
2022-11-20T23:53:46.233Z,3.89
2022-11-20T23:56:16.667Z,3.98
2022-11-20T23:58:44.203Z,3.99
